This is the latest recevied weather packets stored in our database for station/object KD8UTJ. If no packets are shown the sender has not sent any weather packets the latest 10 day(s).
| Time | Temp. | Humidity | Pressure | Rain* | Wind** | Luminosity | Snow |
|---|---|---|---|---|---|---|---|
| 1778175263 | 31.11° C | 59% | 1017.2 hPa | 0 mm | - | 950 W/m² | - |
| 1778174960 | 31.11° C | 57% | 1017 hPa | 0 mm | - | 844 W/m² | - |
| 1778174657 | 31.11° C | 59% | 1017.1 hPa | 0 mm | - | 832 W/m² | - |
| 1778174353 | 31.11° C | 58% | 1017.1 hPa | 0 mm | - | 855 W/m² | - |
| 1778174049 | 30.56° C | 61% | 1017.2 hPa | 0 mm | - | 843 W/m² | - |
| 1778173746 | 31.11° C | 60% | 1017.2 hPa | 0 mm | - | 493 W/m² | - |
| 1778173443 | 30.56° C | 62% | 1017 hPa | 0 mm | - | 803 W/m² | - |
| 1778173139 | 30° C | 62% | 1017.3 hPa | 0 mm | - | 821 W/m² | - |
| 1778172835 | 30° C | 62% | 1017.2 hPa | 0 mm | - | 849 W/m² | - |
| 1778172531 | 30° C | 63% | 1017.3 hPa | 0 mm | - | 825 W/m² | - |
| 1778172228 | 30.56° C | 63% | 1017.5 hPa | 0 mm | - | 815 W/m² | - |
| 1778171926 | 30° C | 64% | 1017.4 hPa | 0 mm | - | 817 W/m² | - |
| 1778171623 | 30.56° C | 63% | 1017.7 hPa | 0 mm | - | 805 W/m² | - |
| 1778171319 | 30° C | 64% | 1017.5 hPa | 0 mm | - | 800 W/m² | - |
| 1778171015 | 29.44° C | 66% | 1017.5 hPa | 0 mm | - | 797 W/m² | - |
| 1778170712 | 30° C | 65% | 1017.6 hPa | 0 mm | - | 790 W/m² | - |
| 1778170408 | 29.44° C | 66% | 1017.5 hPa | 0 mm | - | 788 W/m² | - |
| 1778170105 | 29.44° C | 65% | 1017.8 hPa | 0 mm | - | 783 W/m² | - |
| 1778169801 | 29.44° C | 66% | 1017.8 hPa | 0 mm | - | 773 W/m² | - |
| 1778169497 | 29.44° C | 67% | 1017.9 hPa | 0 mm | - | 768 W/m² | - |
| 1778169193 | 30° C | 65% | 1018 hPa | 0 mm | - | 759 W/m² | - |
| 1778168890 | 28.89° C | 66% | 1018.1 hPa | 0 mm | - | 751 W/m² | - |
| 1778168588 | 28.89° C | 67% | 1018.2 hPa | 0 mm | - | 742 W/m² | - |
| 1778168284 | 28.89° C | 67% | 1018.4 hPa | 0 mm | - | 736 W/m² | - |
| 1778167981 | 28.33° C | 68% | 1018.3 hPa | 0 mm | - | 727 W/m² | - |
* Rain latest hour (hover to see other rain measurements)
** Current wind speed in m/s (hover to see current wind gust speed)